Benjamas Naree — 9V9405 — position and weather

sailwx.info

Track history (hours):
 
Tides and Currents Weather Stations Pressure Air Temp Water Temp Dewpoint Dewpoint Depression Visibility Wind Speed Wind Dir Waves Ship Positions

Benjamas Naree

Last reported at 2016-Dec-06 21:32 UTC. Time now 2016-Dec-08 20:13 UTC.
Position S 29°07' E 032°14'.

Length 181 m; draft 8.2 m.

Type: Cargo ship. MMSI: 566377000.

Date/timePositionNaut miles runAvg speedWind from/ knotsBaromVisibWave heightAir tempDewpointWater temp
2016-Dec-06 21:32S 29°07' E 032°14'36 8.0
2016-Dec-06 17:07S 29°30' E 031°43'610.7
2016-Dec-06 16:33S 29°34' E 031°38'1010.4
2016-Dec-06 15:33S 29°40' E 031°28'1110.7
2016-Dec-06 14:33S 29°46' E 031°18'1212.3
2016-Dec-06 13:33S 29°51' E 031°05'3 2.8
2016-Dec-06 12:33S 29°52' E 031°02'0 0.0
2016-Dec-06 11:33S 29°52' E 031°02'0 0.0
2016-Dec-06 10:33S 29°52' E 031°02'0 0.0
2016-Dec-06 09:33S 29°52' E 031°02'0 0.0
2016-Dec-06 08:33S 29°52' E 031°02'0 0.0
2016-Dec-06 07:33S 29°52' E 031°02'0 0.0
2016-Dec-06 06:33S 29°52' E 031°02'0 0.0
2016-Dec-06 05:33S 29°52' E 031°02'0 0.0
2016-Dec-06 04:33S 29°52' E 031°02'0 0.0
2016-Dec-06 03:33S 29°52' E 031°02'0 0.0
2016-Dec-06 02:33S 29°52' E 031°02'0 0.0
2016-Dec-06 01:33S 29°52' E 031°02'0 0.0
2016-Dec-06 00:30S 29°52' E 031°02'0 0.0
2016-Dec-05 23:33S 29°52' E 031°02'0 0.0
2016-Dec-05 22:30S 29°52' E 031°02'0 0.0
2016-Dec-05 21:33S 29°52' E 031°02'0 0.0
2016-Dec-05 20:33S 29°52' E 031°02'0 0.0
2016-Dec-05 19:33S 29°52' E 031°02'0 0.0
2016-Dec-05 18:33S 29°52' E 031°02'0 0.0
2016-Dec-05 17:33S 29°52' E 031°02'0 0.0
2016-Dec-05 16:33S 29°52' E 031°02'0 0.0
2016-Dec-05 15:33S 29°52' E 031°02'0 0.0
2016-Dec-05 14:33S 29°52' E 031°02'0 0.0
2016-Dec-05 13:33S 29°52' E 031°02'0 0.0
2016-Dec-05 12:33S 29°52' E 031°02'0 0.0
2016-Dec-05 11:33S 29°52' E 031°02'0 0.0
2016-Dec-05 10:33S 29°52' E 031°02'0 0.0
2016-Dec-05 09:33S 29°52' E 031°02'0 0.0
2016-Dec-05 08:33S 29°52' E 031°02'0 0.0
2016-Dec-05 07:33S 29°52' E 031°02'0 0.0
2016-Dec-05 06:33S 29°52' E 031°02'6 5.5
2016-Dec-05 05:33S 29°49' E 031°07'4 4.2
2016-Dec-05 04:33S 29°50' E 031°12'1 1.4
2016-Dec-05 03:33S 29°49' E 031°11'1211.8
2016-Dec-05 02:33S 29°45' E 031°24'1212.2
2016-Dec-05 01:33S 29°42' E 031°38'1413.9
2016-Dec-05 00:33S 29°38' E 031°53'  
Track history (hours):
 
Tides and Currents Weather Stations Pressure Air Temp Water Temp Dewpoint Dewpoint Depression Visibility Wind Speed Wind Dir Waves Ship Positions

Benjamas Naree

Last reported at 2016-Dec-06 21:32 UTC. Time now 2016-Dec-08 20:13 UTC.
Position S 29°07' E 032°14'.

Length 181 m; draft 8.2 m.

Type: Cargo ship. MMSI: 566377000.

Date/timePositionNaut miles runAvg speedWind from/ knotsBaromVisibWave heightAir tempDewpointWater temp
2016-Dec-06 21:32S 29°07' E 032°14'36 8.0
2016-Dec-06 17:07S 29°30' E 031°43'610.7
2016-Dec-06 16:33S 29°34' E 031°38'1010.4
2016-Dec-06 15:33S 29°40' E 031°28'1110.7
2016-Dec-06 14:33S 29°46' E 031°18'1212.3
2016-Dec-06 13:33S 29°51' E 031°05'3 2.8
2016-Dec-06 12:33S 29°52' E 031°02'0 0.0
2016-Dec-06 11:33S 29°52' E 031°02'0 0.0
2016-Dec-06 10:33S 29°52' E 031°02'0 0.0
2016-Dec-06 09:33S 29°52' E 031°02'0 0.0
2016-Dec-06 08:33S 29°52' E 031°02'0 0.0
2016-Dec-06 07:33S 29°52' E 031°02'0 0.0
2016-Dec-06 06:33S 29°52' E 031°02'0 0.0
2016-Dec-06 05:33S 29°52' E 031°02'0 0.0
2016-Dec-06 04:33S 29°52' E 031°02'0 0.0
2016-Dec-06 03:33S 29°52' E 031°02'0 0.0
2016-Dec-06 02:33S 29°52' E 031°02'0 0.0
2016-Dec-06 01:33S 29°52' E 031°02'0 0.0
2016-Dec-06 00:30S 29°52' E 031°02'0 0.0
2016-Dec-05 23:33S 29°52' E 031°02'0 0.0
2016-Dec-05 22:30S 29°52' E 031°02'0 0.0
2016-Dec-05 21:33S 29°52' E 031°02'0 0.0
2016-Dec-05 20:33S 29°52' E 031°02'0 0.0
2016-Dec-05 19:33S 29°52' E 031°02'0 0.0
2016-Dec-05 18:33S 29°52' E 031°02'0 0.0
2016-Dec-05 17:33S 29°52' E 031°02'0 0.0
2016-Dec-05 16:33S 29°52' E 031°02'0 0.0
2016-Dec-05 15:33S 29°52' E 031°02'0 0.0
2016-Dec-05 14:33S 29°52' E 031°02'0 0.0
2016-Dec-05 13:33S 29°52' E 031°02'0 0.0
2016-Dec-05 12:33S 29°52' E 031°02'0 0.0
2016-Dec-05 11:33S 29°52' E 031°02'0 0.0
2016-Dec-05 10:33S 29°52' E 031°02'0 0.0
2016-Dec-05 09:33S 29°52' E 031°02'0 0.0
2016-Dec-05 08:33S 29°52' E 031°02'0 0.0
2016-Dec-05 07:33S 29°52' E 031°02'0 0.0
2016-Dec-05 06:33S 29°52' E 031°02'6 5.5
2016-Dec-05 05:33S 29°49' E 031°07'4 4.2
2016-Dec-05 04:33S 29°50' E 031°12'1 1.4
2016-Dec-05 03:33S 29°49' E 031°11'1211.8
2016-Dec-05 02:33S 29°45' E 031°24'1212.2
2016-Dec-05 01:33S 29°42' E 031°38'1413.9
2016-Dec-05 00:33S 29°38' E 031°53'  

Dump ship's entire track history